createdAt,value
2018-06-17T00:00:54.458Z,7.63
2018-06-17T00:03:22.962Z,5.20
2018-06-17T00:05:51.479Z,2.87
2018-06-17T00:08:20.015Z,5.17
2018-06-17T00:10:48.647Z,5.37
2018-06-17T00:13:17.226Z,5.90
2018-06-17T00:15:45.863Z,4.37
2018-06-17T00:18:14.430Z,5.93
2018-06-17T00:20:42.971Z,6.17
2018-06-17T00:23:11.514Z,4.87
2018-06-17T00:25:40.083Z,4.30
2018-06-17T00:28:08.777Z,4.23
2018-06-17T00:30:37.426Z,4.50
2018-06-17T00:33:06.047Z,10.33
2018-06-17T00:35:34.676Z,5.80
2018-06-17T00:38:03.315Z,4.87
2018-06-17T00:40:32.338Z,5.17
2018-06-17T00:43:00.942Z,4.10
2018-06-17T00:45:29.523Z,7.03
2018-06-17T00:47:58.040Z,5.00
2018-06-17T00:50:26.534Z,5.07
2018-06-17T00:52:55.066Z,5.17
2018-06-17T00:55:23.702Z,3.23
2018-06-17T00:57:53.057Z,4.13
2018-06-17T01:00:23.002Z,3.07
2018-06-17T01:02:51.600Z,3.57
2018-06-17T01:05:20.121Z,7.73
2018-06-17T01:07:48.730Z,9.97
2018-06-17T01:10:17.349Z,7.27
2018-06-17T01:12:45.931Z,5.20
2018-06-17T01:15:14.430Z,4.83
2018-06-17T01:17:42.934Z,8.17
2018-06-17T01:20:11.476Z,3.63
2018-06-17T01:22:40.161Z,3.20
2018-06-17T01:25:08.646Z,3.40
2018-06-17T01:27:37.330Z,5.60
2018-06-17T01:30:05.958Z,7.67
2018-06-17T01:32:34.491Z,3.53
2018-06-17T01:35:03.010Z,3.27
2018-06-17T01:37:31.645Z,4.20
2018-06-17T01:40:00.241Z,3.67
2018-06-17T01:42:28.770Z,4.30
2018-06-17T01:44:57.322Z,3.17
2018-06-17T01:47:25.940Z,5.40
2018-06-17T01:49:54.714Z,2.80
2018-06-17T01:52:23.360Z,4.33
2018-06-17T01:54:52.199Z,6.37
2018-06-17T01:57:20.733Z,3.97
2018-06-17T01:59:49.419Z,2.17
2018-06-17T02:02:17.998Z,5.50
2018-06-17T02:04:51.701Z,3.83
2018-06-17T02:07:25.592Z,2.77
2018-06-17T02:09:59.470Z,3.40
2018-06-17T02:12:28.022Z,4.80
2018-06-17T02:14:57.911Z,3.53
2018-06-17T02:17:27.242Z,2.60
2018-06-17T02:19:56.292Z,5.20
2018-06-17T02:22:25.239Z,4.33
2018-06-17T02:24:55.519Z,9.73
2018-06-17T02:27:24.172Z,4.17
2018-06-17T02:29:52.698Z,4.23
2018-06-17T02:32:21.332Z,2.80
2018-06-17T02:34:49.953Z,2.60
2018-06-17T02:37:18.584Z,3.00
2018-06-17T02:39:47.184Z,4.97
2018-06-17T02:42:16.258Z,4.43
2018-06-17T02:44:44.900Z,3.83
2018-06-17T02:47:18.503Z,2.97
2018-06-17T02:49:48.613Z,3.83
2018-06-17T02:52:22.435Z,4.80
2018-06-17T02:54:51.009Z,4.17
2018-06-17T02:57:20.611Z,2.07
2018-06-17T02:59:49.158Z,4.90
2018-06-17T03:02:17.780Z,3.27
2018-06-17T03:04:46.413Z,2.90
2018-06-17T03:07:15.051Z,5.20
2018-06-17T03:09:43.735Z,4.63
2018-06-17T03:12:12.320Z,2.53
2018-06-17T03:14:40.901Z,5.60
2018-06-17T03:17:09.588Z,5.83
2018-06-17T03:19:38.171Z,2.07
2018-06-17T03:22:06.853Z,2.93
2018-06-17T03:24:40.687Z,3.33
2018-06-17T03:27:14.446Z,3.80
2018-06-17T03:29:48.269Z,2.63
2018-06-17T03:32:22.077Z,3.93
2018-06-17T03:34:55.821Z,3.03
2018-06-17T03:37:24.463Z,2.93
2018-06-17T03:39:53.046Z,5.90
2018-06-17T03:42:21.628Z,1.80
2018-06-17T03:44:50.258Z,3.47
2018-06-17T03:47:18.896Z,2.27
2018-06-17T03:49:47.478Z,3.77
2018-06-17T03:52:16.061Z,2.47
2018-06-17T03:54:44.746Z,2.33
2018-06-17T03:57:13.373Z,6.47
2018-06-17T03:59:41.951Z,2.70
2018-06-17T04:02:10.599Z,4.10
2018-06-17T04:04:44.462Z,3.13
2018-06-17T04:07:14.112Z,3.47
2018-06-17T04:09:42.738Z,2.40
2018-06-17T04:12:11.239Z,2.57
2018-06-17T04:14:40.167Z,3.63
2018-06-17T04:17:12.745Z,2.97
2018-06-17T04:19:41.429Z,3.73
2018-06-17T04:22:10.358Z,2.33
2018-06-17T04:24:38.946Z,5.63
2018-06-17T04:27:08.203Z,3.97
2018-06-17T04:29:37.000Z,3.97
2018-06-17T04:32:05.776Z,2.03
2018-06-17T04:34:34.462Z,2.57
2018-06-17T04:37:02.984Z,4.70
2018-06-17T04:39:31.730Z,2.23
2018-06-17T04:42:00.417Z,3.50
2018-06-17T04:44:29.010Z,2.10
2018-06-17T04:46:57.663Z,2.70
2018-06-17T04:49:26.268Z,3.73
2018-06-17T04:51:55.567Z,2.03
2018-06-17T04:54:24.198Z,1.93
2018-06-17T04:56:52.786Z,7.43
2018-06-17T04:59:21.725Z,4.83
2018-06-17T05:01:50.972Z,1.83
2018-06-17T05:04:19.490Z,2.40
2018-06-17T05:06:48.088Z,3.50
2018-06-17T05:09:16.673Z,2.70
2018-06-17T05:11:45.160Z,5.30
2018-06-17T05:14:13.735Z,3.77
2018-06-17T05:16:42.278Z,3.73
2018-06-17T05:19:10.820Z,5.67
2018-06-17T05:21:39.618Z,7.67
2018-06-17T05:24:08.271Z,2.17
2018-06-17T05:26:36.802Z,4.50
2018-06-17T05:29:05.436Z,4.90
2018-06-17T05:31:34.122Z,2.40
2018-06-17T05:34:02.706Z,3.23
2018-06-17T05:36:31.382Z,6.03
2018-06-17T05:39:00.075Z,3.37
2018-06-17T05:41:28.906Z,3.97
2018-06-17T05:43:57.552Z,3.37
2018-06-17T05:46:26.233Z,4.50
2018-06-17T05:48:54.750Z,4.13
2018-06-17T05:51:23.363Z,2.30
2018-06-17T05:53:51.981Z,2.87
2018-06-17T05:56:21.998Z,3.23
2018-06-17T05:58:50.683Z,3.77
2018-06-17T06:01:19.575Z,4.07
2018-06-17T06:03:48.467Z,2.70
2018-06-17T06:06:17.077Z,3.67
2018-06-17T06:08:45.938Z,5.00
2018-06-17T06:11:14.626Z,2.53
2018-06-17T06:13:43.258Z,5.83
2018-06-17T06:16:11.994Z,4.43
2018-06-17T06:18:40.722Z,4.83
2018-06-17T06:21:09.365Z,4.53
2018-06-17T06:23:37.875Z,3.23
2018-06-17T06:26:06.479Z,4.40
2018-06-17T06:28:35.113Z,4.30
2018-06-17T06:31:03.849Z,7.67
2018-06-17T06:33:32.535Z,6.30
2018-06-17T06:36:01.118Z,7.53
2018-06-17T06:38:29.828Z,5.60
2018-06-17T06:40:58.409Z,5.50
2018-06-17T06:43:26.966Z,6.80
2018-06-17T06:45:55.601Z,5.03
2018-06-17T06:48:24.183Z,6.77
2018-06-17T06:50:52.736Z,3.83
2018-06-17T06:53:21.350Z,5.10
2018-06-17T06:55:49.932Z,4.57
2018-06-17T06:58:18.511Z,5.87
2018-06-17T07:00:47.098Z,4.13
2018-06-17T07:03:26.947Z,6.03
2018-06-17T07:06:06.670Z,6.37
2018-06-17T07:08:46.433Z,9.53
2018-06-17T07:11:14.970Z,5.83
2018-06-17T07:13:43.542Z,5.77
2018-06-17T07:16:23.349Z,4.77
2018-06-17T07:18:51.955Z,5.97
2018-06-17T07:21:20.612Z,6.70
2018-06-17T07:23:49.246Z,8.13
2018-06-17T07:26:30.680Z,7.30
2018-06-17T07:29:10.530Z,6.43
2018-06-17T07:31:39.520Z,9.30
2018-06-17T07:34:08.882Z,6.20
2018-06-17T07:36:38.166Z,6.40
2018-06-17T07:39:16.699Z,9.20
2018-06-17T07:41:46.227Z,8.40
2018-06-17T07:44:14.824Z,8.90
2018-06-17T07:46:43.509Z,13.33
2018-06-17T07:49:35.440Z,7.47
2018-06-17T07:52:16.310Z,14.40
2018-06-17T07:54:45.345Z,7.80
2018-06-17T07:57:16.244Z,9.17
2018-06-17T07:59:44.879Z,7.70
2018-06-17T08:02:14.021Z,11.50
2018-06-17T08:04:42.626Z,8.30
2018-06-17T08:07:11.242Z,8.43
2018-06-17T08:09:40.384Z,11.47
2018-06-17T08:12:09.785Z,7.93
2018-06-17T08:14:38.534Z,16.53
2018-06-17T08:17:07.142Z,7.47
2018-06-17T08:19:37.247Z,5.23
2018-06-17T08:22:05.960Z,10.83
2018-06-17T08:24:35.099Z,7.93
2018-06-17T08:27:03.844Z,4.30
2018-06-17T08:29:32.480Z,4.70
2018-06-17T08:32:01.012Z,5.40
2018-06-17T08:34:29.634Z,2.77
2018-06-17T08:36:58.277Z,4.20
2018-06-17T08:39:26.860Z,2.53
2018-06-17T08:41:55.443Z,3.10
2018-06-17T08:44:24.025Z,5.13
2018-06-17T08:46:52.632Z,2.47
2018-06-17T08:49:21.501Z,4.47
2018-06-17T08:51:50.127Z,8.53
2018-06-17T08:54:18.786Z,6.73
2018-06-17T08:56:47.459Z,4.57
2018-06-17T08:59:15.978Z,15.13
2018-06-17T09:01:44.833Z,3.87
2018-06-17T09:04:14.072Z,3.53
2018-06-17T09:06:42.964Z,4.60
2018-06-17T09:09:12.962Z,3.43
2018-06-17T09:11:41.616Z,5.53
2018-06-17T09:14:10.296Z,7.57
2018-06-17T09:16:38.822Z,3.03
2018-06-17T09:19:07.398Z,1.93
2018-06-17T09:21:36.048Z,2.73
2018-06-17T09:24:04.635Z,3.07
2018-06-17T09:26:33.154Z,2.37
2018-06-17T09:29:02.408Z,2.20
2018-06-17T09:31:30.991Z,2.90
2018-06-17T09:33:59.781Z,3.80
2018-06-17T09:36:28.464Z,3.50
2018-06-17T09:38:56.990Z,2.10
2018-06-17T09:41:25.619Z,2.77
2018-06-17T09:43:54.137Z,1.53
2018-06-17T09:46:22.694Z,1.10
2018-06-17T09:48:51.297Z,3.03
2018-06-17T09:51:20.007Z,1.77
2018-06-17T09:53:48.585Z,2.87
2018-06-17T09:56:17.123Z,2.77
2018-06-17T09:58:46.408Z,1.43
2018-06-17T10:01:16.159Z,4.40
2018-06-17T10:03:44.822Z,2.23
2018-06-17T10:06:13.506Z,2.73
2018-06-17T10:08:42.172Z,4.33
2018-06-17T10:11:11.612Z,2.63
2018-06-17T10:13:43.199Z,3.93
2018-06-17T10:16:12.970Z,4.10
2018-06-17T10:18:41.951Z,4.90
2018-06-17T10:21:10.553Z,2.00
2018-06-17T10:23:39.134Z,4.87
2018-06-17T10:26:07.905Z,1.33
2018-06-17T10:28:36.797Z,2.63
2018-06-17T10:31:06.570Z,2.27
2018-06-17T10:33:36.022Z,2.00
2018-06-17T10:36:04.695Z,1.57
2018-06-17T10:38:33.330Z,2.33
2018-06-17T10:41:01.898Z,2.90
2018-06-17T10:43:31.892Z,2.50
2018-06-17T10:46:00.568Z,3.83
2018-06-17T10:48:29.297Z,4.23
2018-06-17T10:50:57.940Z,3.83
2018-06-17T10:53:26.616Z,5.40
2018-06-17T10:55:55.299Z,2.63
2018-06-17T10:58:23.887Z,4.00
2018-06-17T11:00:52.568Z,3.80
2018-06-17T11:03:21.199Z,2.80
2018-06-17T11:05:49.744Z,2.60
2018-06-17T11:08:18.423Z,5.10
2018-06-17T11:10:47.106Z,5.60
2018-06-17T11:13:16.521Z,5.73
2018-06-17T11:15:45.194Z,4.83
2018-06-17T11:18:13.791Z,5.90
2018-06-17T11:20:42.464Z,5.67
2018-06-17T11:23:11.002Z,5.67
2018-06-17T11:25:39.586Z,5.57
2018-06-17T11:28:08.895Z,8.60
2018-06-17T11:30:37.610Z,8.30
2018-06-17T11:33:06.196Z,8.50
2018-06-17T11:35:34.692Z,16.97
2018-06-17T11:38:03.312Z,11.90
2018-06-17T11:40:32.496Z,14.93
2018-06-17T11:43:01.142Z,17.17
2018-06-17T11:45:29.932Z,15.67
2018-06-17T11:47:58.554Z,14.33
2018-06-17T11:50:27.118Z,14.63
2018-06-17T11:52:55.678Z,11.00
2018-06-17T11:55:24.261Z,17.57
2018-06-17T11:57:52.758Z,12.87
2018-06-17T12:00:21.351Z,14.90
2018-06-17T12:02:50.008Z,16.67
2018-06-17T12:05:18.591Z,8.33
2018-06-17T12:07:47.634Z,11.30
2018-06-17T12:10:16.269Z,9.73
2018-06-17T12:12:45.057Z,12.90
2018-06-17T12:15:13.588Z,9.90
2018-06-17T12:17:42.222Z,12.73
2018-06-17T12:20:10.807Z,10.93
2018-06-17T12:22:39.316Z,9.80
2018-06-17T12:25:07.973Z,15.97
2018-06-17T12:27:36.502Z,16.57
2018-06-17T12:30:05.239Z,8.73
2018-06-17T12:32:35.051Z,14.60
2018-06-17T12:35:03.638Z,14.80
2018-06-17T12:37:32.216Z,11.67
2018-06-17T12:40:00.726Z,12.50
2018-06-17T12:42:29.439Z,10.57
2018-06-17T12:44:59.396Z,15.27
2018-06-17T12:47:28.084Z,11.43
2018-06-17T12:49:56.649Z,11.13
2018-06-17T12:52:25.270Z,9.77
2018-06-17T12:54:53.846Z,4.20
2018-06-17T12:57:23.726Z,7.90
2018-06-17T12:59:52.253Z,9.27
2018-06-17T13:02:20.768Z,4.10
2018-06-17T13:04:50.008Z,4.73
2018-06-17T13:07:18.687Z,6.60
2018-06-17T13:09:47.222Z,7.13
2018-06-17T13:12:15.978Z,4.77
2018-06-17T13:14:44.542Z,5.03
2018-06-17T13:17:13.126Z,6.17
2018-06-17T13:19:41.951Z,3.97
2018-06-17T13:22:10.543Z,5.23
2018-06-17T13:24:39.132Z,4.40
2018-06-17T13:27:07.666Z,5.87
2018-06-17T13:29:36.859Z,11.57
2018-06-17T13:32:05.409Z,5.80
2018-06-17T13:34:33.922Z,4.27
2018-06-17T13:37:02.608Z,5.50
2018-06-17T13:39:31.234Z,8.83
2018-06-17T13:42:00.330Z,9.13
2018-06-17T13:44:30.200Z,6.70
2018-06-17T13:46:58.724Z,4.70
2018-06-17T13:49:27.425Z,4.63
2018-06-17T13:51:55.978Z,5.47
2018-06-17T13:54:24.635Z,4.37
2018-06-17T13:56:53.834Z,3.77
2018-06-17T13:59:22.517Z,3.30
2018-06-17T14:01:51.422Z,6.53
2018-06-17T14:04:20.705Z,7.97
2018-06-17T14:06:49.288Z,2.10
2018-06-17T14:09:17.986Z,2.70
2018-06-17T14:11:47.018Z,2.97
2018-06-17T14:14:16.522Z,2.80
2018-06-17T14:16:46.079Z,4.03
2018-06-17T14:19:14.706Z,4.93
2018-06-17T14:21:43.247Z,7.30
2018-06-17T14:24:11.827Z,3.90
2018-06-17T14:26:40.324Z,1.33
2018-06-17T14:29:08.919Z,2.23
2018-06-17T14:31:37.514Z,1.97
2018-06-17T14:34:06.627Z,4.67
2018-06-17T14:36:35.282Z,3.73
2018-06-17T14:39:04.906Z,8.60
2018-06-17T14:41:33.546Z,3.30
2018-06-17T14:44:07.374Z,2.47
2018-06-17T14:46:41.102Z,2.03
2018-06-17T14:49:15.270Z,3.00
2018-06-17T14:51:49.073Z,1.90
2018-06-17T14:54:17.704Z,1.83
2018-06-17T14:56:46.263Z,3.10
2018-06-17T14:59:14.903Z,2.83
2018-06-17T15:01:43.612Z,3.53
2018-06-17T15:04:12.280Z,2.17
2018-06-17T15:06:40.852Z,2.17
2018-06-17T15:09:14.972Z,4.73
2018-06-17T15:11:51.510Z,1.73
2018-06-17T15:14:20.297Z,4.10
2018-06-17T15:16:48.933Z,3.20
2018-06-17T15:19:17.721Z,2.00
2018-06-17T15:21:46.408Z,2.50
2018-06-17T15:24:15.553Z,3.53
2018-06-17T15:26:44.106Z,1.53
2018-06-17T15:29:13.996Z,0.97
2018-06-17T15:31:47.684Z,2.40
2018-06-17T15:34:21.387Z,3.57
2018-06-17T15:36:55.242Z,1.90
2018-06-17T15:39:28.985Z,1.73
2018-06-17T15:41:58.414Z,4.70
2018-06-17T15:44:27.104Z,1.83
2018-06-17T15:46:56.301Z,5.73
2018-06-17T15:49:25.297Z,2.00
2018-06-17T15:51:53.910Z,5.70
2018-06-17T15:54:22.735Z,2.60
2018-06-17T15:56:51.846Z,5.30
2018-06-17T15:59:20.462Z,2.90
2018-06-17T16:01:49.978Z,7.67
2018-06-17T16:04:20.361Z,3.63
2018-06-17T16:06:48.898Z,10.90
2018-06-17T16:09:17.645Z,7.03
2018-06-17T16:11:52.059Z,13.40
2018-06-17T16:14:26.590Z,8.77
2018-06-17T16:17:00.407Z,6.07
2018-06-17T16:19:34.395Z,8.33
2018-06-17T16:22:03.250Z,4.00
2018-06-17T16:24:31.783Z,3.07
2018-06-17T16:27:00.433Z,4.13
2018-06-17T16:29:28.986Z,3.90
2018-06-17T16:31:57.826Z,4.43
2018-06-17T16:34:27.103Z,4.87
2018-06-17T16:36:55.739Z,1.77
2018-06-17T16:39:25.043Z,2.40
2018-06-17T16:41:53.690Z,1.43
2018-06-17T16:44:22.199Z,4.70
2018-06-17T16:46:50.821Z,0.60
2018-06-17T16:49:19.398Z,2.53
2018-06-17T16:51:53.344Z,3.53
2018-06-17T16:54:27.228Z,2.10
2018-06-17T16:57:01.164Z,1.10
2018-06-17T16:59:34.867Z,2.40
2018-06-17T17:02:04.102Z,3.03
2018-06-17T17:04:35.242Z,2.47
2018-06-17T17:07:04.455Z,0.70
2018-06-17T17:09:33.038Z,1.90
2018-06-17T17:12:01.615Z,1.63
2018-06-17T17:14:30.356Z,1.73
2018-06-17T17:16:58.939Z,3.03
2018-06-17T17:19:27.545Z,1.47
2018-06-17T17:21:56.206Z,4.20
2018-06-17T17:24:24.995Z,1.83
2018-06-17T17:26:53.622Z,2.73
2018-06-17T17:29:22.262Z,8.23
2018-06-17T17:31:56.887Z,1.60
2018-06-17T17:34:30.691Z,3.07
2018-06-17T17:37:04.397Z,0.93
2018-06-17T17:39:38.409Z,0.83
2018-06-17T17:42:07.295Z,1.27
2018-06-17T17:44:41.048Z,4.87
2018-06-17T17:47:15.827Z,1.37
2018-06-17T17:49:45.075Z,2.00
2018-06-17T17:52:14.292Z,2.27
2018-06-17T17:54:43.385Z,2.67
2018-06-17T17:57:11.996Z,4.40
2018-06-17T17:59:40.494Z,1.77
2018-06-17T18:02:09.167Z,2.93
2018-06-17T18:04:37.858Z,1.30
2018-06-17T18:07:06.447Z,2.43
2018-06-17T18:09:35.429Z,2.03
2018-06-17T18:12:04.368Z,1.07
2018-06-17T18:14:33.106Z,2.40
2018-06-17T18:17:01.842Z,1.97
2018-06-17T18:19:30.478Z,3.53
2018-06-17T18:21:58.998Z,5.97
2018-06-17T18:24:28.007Z,3.17
2018-06-17T18:27:01.961Z,3.83
2018-06-17T18:29:35.749Z,1.03
2018-06-17T18:32:11.620Z,2.43
2018-06-17T18:34:45.936Z,4.50
2018-06-17T18:37:14.626Z,2.30
2018-06-17T18:39:43.162Z,2.33
2018-06-17T18:42:12.386Z,3.63
2018-06-17T18:44:40.943Z,5.13
2018-06-17T18:47:09.517Z,3.27
2018-06-17T18:49:38.906Z,2.90
2018-06-17T18:52:09.295Z,3.90
2018-06-17T18:54:37.947Z,6.63
2018-06-17T18:57:06.664Z,4.37
2018-06-17T18:59:36.374Z,1.10
2018-06-17T19:02:05.673Z,2.63
2018-06-17T19:04:34.280Z,1.97
2018-06-17T19:07:03.759Z,2.50
2018-06-17T19:09:37.565Z,1.77
2018-06-17T19:12:11.678Z,3.80
2018-06-17T19:14:45.437Z,2.20
2018-06-17T19:17:19.127Z,4.57
2018-06-17T19:19:47.830Z,5.90
2018-06-17T19:22:16.454Z,2.13
2018-06-17T19:24:44.986Z,0.97
2018-06-17T19:27:13.722Z,2.73
2018-06-17T19:29:42.458Z,4.47
2018-06-17T19:32:11.035Z,4.57
2018-06-17T19:34:39.683Z,2.33
2018-06-17T19:37:08.361Z,4.50
2018-06-17T19:39:36.884Z,2.37
2018-06-17T19:42:05.484Z,3.03
2018-06-17T19:44:34.007Z,1.60
2018-06-17T19:47:02.609Z,2.07
2018-06-17T19:49:36.396Z,2.70
2018-06-17T19:52:10.106Z,3.67
2018-06-17T19:55:45.649Z,2.73
2018-06-17T19:58:19.426Z,5.00
2018-06-17T20:00:50.293Z,2.13
2018-06-17T20:03:18.770Z,2.47
2018-06-17T20:05:47.354Z,3.90
2018-06-17T20:08:15.937Z,2.73
2018-06-17T20:10:44.602Z,5.10
2018-06-17T20:13:13.155Z,6.43
2018-06-17T20:15:41.779Z,4.97
2018-06-17T20:18:10.474Z,4.07
2018-06-17T20:20:39.098Z,1.60
2018-06-17T20:23:07.610Z,0.63
2018-06-17T20:25:36.126Z,2.37
2018-06-17T20:28:04.725Z,2.13
2018-06-17T20:30:34.139Z,3.77
2018-06-17T20:33:08.321Z,2.67
2018-06-17T20:35:41.982Z,2.73
2018-06-17T20:38:15.930Z,6.60
2018-06-17T20:40:49.823Z,1.17
2018-06-17T20:44:21.725Z,1.10
2018-06-17T20:46:50.232Z,1.70
2018-06-17T20:49:19.076Z,3.90
2018-06-17T20:51:47.579Z,4.63
2018-06-17T20:54:16.078Z,3.20
2018-06-17T20:56:44.658Z,3.07
2018-06-17T20:59:13.250Z,2.50
2018-06-17T21:01:41.747Z,2.53
2018-06-17T21:04:10.368Z,0.97
2018-06-17T21:06:39.053Z,4.33
2018-06-17T21:09:09.994Z,5.60
2018-06-17T21:11:38.576Z,3.37
2018-06-17T21:14:07.361Z,1.27
2018-06-17T21:16:35.983Z,3.70
2018-06-17T21:19:09.851Z,3.03
2018-06-17T21:21:43.647Z,5.43
2018-06-17T21:24:17.423Z,5.83
2018-06-17T21:26:51.217Z,1.10
2018-06-17T21:29:19.938Z,2.77
2018-06-17T21:31:48.438Z,1.40
2018-06-17T21:34:17.120Z,3.07
2018-06-17T21:36:45.718Z,7.07
2018-06-17T21:39:14.331Z,1.40
2018-06-17T21:41:42.970Z,0.70
2018-06-17T21:44:11.517Z,1.57
2018-06-17T21:46:40.074Z,3.67
2018-06-17T21:49:08.720Z,1.67
2018-06-17T21:51:37.303Z,3.13
2018-06-17T21:54:05.890Z,3.27
2018-06-17T21:56:34.577Z,1.07
2018-06-17T21:59:03.303Z,0.93
2018-06-17T22:01:31.940Z,2.50
2018-06-17T22:04:05.561Z,2.87
2018-06-17T22:06:34.125Z,2.33
2018-06-17T22:09:07.984Z,3.20
2018-06-17T22:11:41.670Z,2.23
2018-06-17T22:14:15.350Z,1.80
2018-06-17T22:16:49.140Z,5.33
2018-06-17T22:19:17.724Z,2.00
2018-06-17T22:21:46.349Z,1.37
2018-06-17T22:24:14.887Z,4.77
2018-06-17T22:26:43.573Z,2.67
2018-06-17T22:29:12.156Z,4.30
2018-06-17T22:31:41.047Z,4.63
2018-06-17T22:34:09.548Z,1.73
2018-06-17T22:36:38.047Z,5.97
2018-06-17T22:39:08.742Z,2.87
2018-06-17T22:41:37.874Z,3.57
2018-06-17T22:44:06.466Z,2.30
2018-06-17T22:46:35.103Z,3.30
2018-06-17T22:49:03.578Z,4.00
2018-06-17T22:51:32.289Z,4.87
2018-06-17T22:54:12.066Z,1.70
2018-06-17T22:56:46.023Z,6.60
2018-06-17T22:59:19.829Z,1.60
2018-06-17T23:02:52.309Z,2.73
2018-06-17T23:05:26.094Z,1.17
2018-06-17T23:08:00.023Z,2.07
2018-06-17T23:10:28.607Z,3.40
2018-06-17T23:12:57.188Z,2.93
2018-06-17T23:15:25.774Z,1.73
2018-06-17T23:17:54.290Z,4.07
2018-06-17T23:20:22.778Z,1.37
2018-06-17T23:22:51.426Z,1.43
2018-06-17T23:25:19.923Z,2.27
2018-06-17T23:27:48.402Z,0.70
2018-06-17T23:30:16.962Z,1.43
2018-06-17T23:32:45.550Z,1.13
2018-06-17T23:35:14.066Z,3.40
2018-06-17T23:37:42.570Z,1.87
2018-06-17T23:40:11.196Z,3.87
2018-06-17T23:42:39.773Z,2.97
2018-06-17T23:45:08.356Z,2.93
2018-06-17T23:47:42.264Z,3.53
2018-06-17T23:50:16.007Z,3.20
2018-06-17T23:52:49.727Z,4.97
2018-06-17T23:55:23.480Z,2.57
2018-06-17T23:57:52.162Z,1.77
